Dingxian, China
Current Conditions -  °F | °C
As of 6:00 AM on Wednesday 28 Jan 2015 (Local Time) from ZBSJ Reporting Station
Haze Haze  
Wind Chill: 16°   Ceiling: Unl
Heat Index: 16°   Visibility: 1.4mi
Dew Point:   Wind: 2mph
Humidity: 68%   Direction: 310°NW
Pressure: 30.56"   Gusts: NA
Location:  38.51°N, 114.99°E
Report Text: ZBSJ 272200Z 31001MPS 2300 HZ NSC M09/M14 Q1035 NOSIG
Loading
Personal Weather Stations






























Interactive Weather Map New forecast layout! Learn more

10-Day Weather Forecast

Advertisements
Track Severe Weather on mobile